Terminal Aerodrome Forecast
Issued by NWS

Home | Current Version | Previous Version | Text Only | Print | Product List | Glossary On
Versions: 1 2 3 4 5 6 7 8 9 10 11 12 13 14 15 16 17 18 19 20 21 22 23 24
000
FTUS43 KDLH 260537
TAFHIB
TAF
KHIB 260537Z 2606/2706 VRB03KT P6SM BKN100
      TEMPO 2607/2611 1 1/2SM BR SCT002
     FM261800 20009KT P6SM SCT090
     FM270300 19003KT P6SM SKC=

USA.gov is the U.S. government's official web portal to all federal, state and local government web resources and services.